Terminal Aerodrome Forecast
Issued by NWS

Home | Current Version | Previous Version | Text Only | Print | Product List | Glossary On
Versions: 1 2 3 4 5 6 7 8 9 10 11 12 13 14 15 16 17 18 19 20 21 22
000
FTUS41 KOKX 302300
TAFSWF
TAF
KSWF 302335Z 3100/0106 30020G33KT P6SM SKC
     FM311300 30018G28KT P6SM SKC
     FM311800 30015G22KT P6SM SKC
     FM312300 29012KT P6SM SCT200
     FM010200 28008KT P6SM BKN200
      AMD NOT SKED=

USA.gov is the U.S. government's official web portal to all federal, state and local government web resources and services.